sensor_id;sensor_type;location;lat;lon;timestamp;temperature;humidity
66373;SHT30;53168;51.146;17.120;2023-06-14T00:02:20;11.32;67.30
66373;SHT30;53168;51.146;17.120;2023-06-14T00:05:07;11.29;67.46
66373;SHT30;53168;51.146;17.120;2023-06-14T00:08:08;11.27;67.56
66373;SHT30;53168;51.146;17.120;2023-06-14T00:11:36;11.24;67.72
66373;SHT30;53168;51.146;17.120;2023-06-14T00:14:14;11.20;67.73
66373;SHT30;53168;51.146;17.120;2023-06-14T00:16:49;11.16;67.81
66373;SHT30;53168;51.146;17.120;2023-06-14T00:19:49;11.14;67.94
66373;SHT30;53168;51.146;17.120;2023-06-14T00:22:39;11.10;68.08
66373;SHT30;53168;51.146;17.120;2023-06-14T00:25:17;11.06;68.26
66373;SHT30;53168;51.146;17.120;2023-06-14T00:28:00;11.04;68.45
66373;SHT30;53168;51.146;17.120;2023-06-14T00:30:48;11.02;68.51
66373;SHT30;53168;51.146;17.120;2023-06-14T00:33:32;11.01;68.71
66373;SHT30;53168;51.146;17.120;2023-06-14T00:36:08;10.99;68.92
66373;SHT30;53168;51.146;17.120;2023-06-14T00:38:42;10.96;69.21
66373;SHT30;53168;51.146;17.120;2023-06-14T00:41:16;10.93;69.47
66373;SHT30;53168;51.146;17.120;2023-06-14T00:43:50;10.90;69.44
66373;SHT30;53168;51.146;17.120;2023-06-14T00:46:27;10.88;69.53
66373;SHT30;53168;51.146;17.120;2023-06-14T00:49:04;10.84;69.66
66373;SHT30;53168;51.146;17.120;2023-06-14T00:51:43;10.82;69.80
66373;SHT30;53168;51.146;17.120;2023-06-14T00:54:17;10.82;69.59
66373;SHT30;53168;51.146;17.120;2023-06-14T00:56:51;10.80;69.69
66373;SHT30;53168;51.146;17.120;2023-06-14T00:59:43;10.77;69.87
66373;SHT30;53168;51.146;17.120;2023-06-14T01:07:28;10.73;70.19
66373;SHT30;53168;51.146;17.120;2023-06-14T01:22:59;10.70;70.42
66373;SHT30;53168;51.146;17.120;2023-06-14T01:26:14;10.69;70.48
66373;SHT30;53168;51.146;17.120;2023-06-14T01:29:14;10.69;70.49
66373;SHT30;53168;51.146;17.120;2023-06-14T01:32:31;10.70;70.49
66373;SHT30;53168;51.146;17.120;2023-06-14T01:35:03;10.69;70.52
66373;SHT30;53168;51.146;17.120;2023-06-14T01:37:48;10.68;70.70
66373;SHT30;53168;51.146;17.120;2023-06-14T01:40:20;10.69;70.65
66373;SHT30;53168;51.146;17.120;2023-06-14T01:43:27;10.68;70.69
66373;SHT30;53168;51.146;17.120;2023-06-14T01:46:23;10.65;70.74
66373;SHT30;53168;51.146;17.120;2023-06-14T01:49:11;10.65;70.89
66373;SHT30;53168;51.146;17.120;2023-06-14T01:51:43;10.64;71.06
66373;SHT30;53168;51.146;17.120;2023-06-14T01:54:17;10.66;71.15
66373;SHT30;53168;51.146;17.120;2023-06-14T01:56:51;10.67;71.22
66373;SHT30;53168;51.146;17.120;2023-06-14T01:59:23;10.69;71.51
66373;SHT30;53168;51.146;17.120;2023-06-14T02:01:54;10.70;71.77
66373;SHT30;53168;51.146;17.120;2023-06-14T02:04:24;10.68;71.79
66373;SHT30;53168;51.146;17.120;2023-06-14T02:06:54;10.66;71.69
66373;SHT30;53168;51.146;17.120;2023-06-14T02:09:26;10.66;71.69
66373;SHT30;53168;51.146;17.120;2023-06-14T02:11:56;10.67;71.80
66373;SHT30;53168;51.146;17.120;2023-06-14T02:14:28;10.68;71.84
66373;SHT30;53168;51.146;17.120;2023-06-14T02:16:57;10.71;71.80
66373;SHT30;53168;51.146;17.120;2023-06-14T02:19:29;10.74;71.66
66373;SHT30;53168;51.146;17.120;2023-06-14T02:22:04;10.79;71.60
66373;SHT30;53168;51.146;17.120;2023-06-14T02:24:35;10.88;71.44
66373;SHT30;53168;51.146;17.120;2023-06-14T02:27:09;10.99;71.41
66373;SHT30;53168;51.146;17.120;2023-06-14T02:29:39;11.08;71.30
66373;SHT30;53168;51.146;17.120;2023-06-14T02:32:13;11.17;71.30
66373;SHT30;53168;51.146;17.120;2023-06-14T02:34:51;11.20;71.23
66373;SHT30;53168;51.146;17.120;2023-06-14T02:37:22;11.23;71.11
66373;SHT30;53168;51.146;17.120;2023-06-14T02:40:03;11.21;71.03
66373;SHT30;53168;51.146;17.120;2023-06-14T02:42:35;11.17;71.13
66373;SHT30;53168;51.146;17.120;2023-06-14T02:45:12;11.13;71.37
66373;SHT30;53168;51.146;17.120;2023-06-14T02:47:43;11.10;71.41
66373;SHT30;53168;51.146;17.120;2023-06-14T02:50:16;11.10;71.43
66373;SHT30;53168;51.146;17.120;2023-06-14T02:52:55;11.12;71.59
66373;SHT30;53168;51.146;17.120;2023-06-14T02:55:30;11.16;71.80
66373;SHT30;53168;51.146;17.120;2023-06-14T02:58:11;11.19;71.86
66373;SHT30;53168;51.146;17.120;2023-06-14T03:00:41;11.22;71.90
66373;SHT30;53168;51.146;17.120;2023-06-14T03:03:11;11.26;71.93
66373;SHT30;53168;51.146;17.120;2023-06-14T03:05:52;11.27;72.15
66373;SHT30;53168;51.146;17.120;2023-06-14T03:08:31;11.30;72.18
66373;SHT30;53168;51.146;17.120;2023-06-14T03:11:09;11.33;72.24
66373;SHT30;53168;51.146;17.120;2023-06-14T03:13:43;11.37;72.25
66373;SHT30;53168;51.146;17.120;2023-06-14T03:16:14;11.44;72.18
66373;SHT30;53168;51.146;17.120;2023-06-14T03:18:49;11.52;72.08
66373;SHT30;53168;51.146;17.120;2023-06-14T03:21:23;11.61;72.13
66373;SHT30;53168;51.146;17.120;2023-06-14T03:24:11;11.71;72.05
66373;SHT30;53168;51.146;17.120;2023-06-14T03:26:43;11.83;71.97
66373;SHT30;53168;51.146;17.120;2023-06-14T03:29:13;11.93;71.95
66373;SHT30;53168;51.146;17.120;2023-06-14T03:32:02;12.05;71.75
66373;SHT30;53168;51.146;17.120;2023-06-14T03:34:55;12.20;71.62
66373;SHT30;53168;51.146;17.120;2023-06-14T03:37:26;12.36;71.49
66373;SHT30;53168;51.146;17.120;2023-06-14T03:40:23;12.48;71.40
66373;SHT30;53168;51.146;17.120;2023-06-14T03:43:00;12.61;71.31
66373;SHT30;53168;51.146;17.120;2023-06-14T03:45:29;12.73;71.28
66373;SHT30;53168;51.146;17.120;2023-06-14T03:48:04;12.83;71.14
66373;SHT30;53168;51.146;17.120;2023-06-14T03:50:51;12.87;71.10
66373;SHT30;53168;51.146;17.120;2023-06-14T03:53:26;12.87;71.10
66373;SHT30;53168;51.146;17.120;2023-06-14T03:56:13;12.85;71.03
66373;SHT30;53168;51.146;17.120;2023-06-14T03:59:25;12.84;71.08
66373;SHT30;53168;51.146;17.120;2023-06-14T04:01:59;12.83;71.05
66373;SHT30;53168;51.146;17.120;2023-06-14T04:05:00;12.82;71.01
66373;SHT30;53168;51.146;17.120;2023-06-14T04:07:32;12.82;71.00
66373;SHT30;53168;51.146;17.120;2023-06-14T04:10:10;12.88;70.98
66373;SHT30;53168;51.146;17.120;2023-06-14T04:12:40;12.94;70.99
66373;SHT30;53168;51.146;17.120;2023-06-14T04:15:12;13.06;70.91
66373;SHT30;53168;51.146;17.120;2023-06-14T04:17:45;13.18;71.01
66373;SHT30;53168;51.146;17.120;2023-06-14T04:20:17;13.35;70.83
66373;SHT30;53168;51.146;17.120;2023-06-14T04:23:10;13.49;70.68
66373;SHT30;53168;51.146;17.120;2023-06-14T04:25:41;13.67;70.47
66373;SHT30;53168;51.146;17.120;2023-06-14T04:28:14;13.81;70.41
66373;SHT30;53168;51.146;17.120;2023-06-14T04:30:46;13.93;70.40
66373;SHT30;53168;51.146;17.120;2023-06-14T04:33:16;14.01;70.33
66373;SHT30;53168;51.146;17.120;2023-06-14T04:35:47;14.04;70.27
66373;SHT30;53168;51.146;17.120;2023-06-14T04:56:44;14.25;70.84
66373;SHT30;53168;51.146;17.120;2023-06-14T04:59:19;14.30;70.88
66373;SHT30;53168;51.146;17.120;2023-06-14T05:01:54;14.32;70.82
66373;SHT30;53168;51.146;17.120;2023-06-14T05:04:29;14.35;70.79
66373;SHT30;53168;51.146;17.120;2023-06-14T05:07:03;14.40;70.80
66373;SHT30;53168;51.146;17.120;2023-06-14T05:09:38;14.44;70.80
66373;SHT30;53168;51.146;17.120;2023-06-14T05:12:28;14.50;70.78
66373;SHT30;53168;51.146;17.120;2023-06-14T05:15:04;14.54;70.71
66373;SHT30;53168;51.146;17.120;2023-06-14T05:17:48;14.61;70.78
66373;SHT30;53168;51.146;17.120;2023-06-14T05:20:26;14.67;70.81
66373;SHT30;53168;51.146;17.120;2023-06-14T05:23:01;14.69;70.90
66373;SHT30;53168;51.146;17.120;2023-06-14T05:25:53;14.78;70.99
66373;SHT30;53168;51.146;17.120;2023-06-14T05:28:34;14.82;70.74
66373;SHT30;53168;51.146;17.120;2023-06-14T05:31:09;14.85;70.77
66373;SHT30;53168;51.146;17.120;2023-06-14T05:34:13;14.79;70.75
66373;SHT30;53168;51.146;17.120;2023-06-14T05:36:49;14.79;70.87
66373;SHT30;53168;51.146;17.120;2023-06-14T05:39:32;14.90;71.04
66373;SHT30;53168;51.146;17.120;2023-06-14T05:42:09;14.97;70.82
66373;SHT30;53168;51.146;17.120;2023-06-14T05:44:45;15.06;70.58
66373;SHT30;53168;51.146;17.120;2023-06-14T05:47:19;15.15;70.66
66373;SHT30;53168;51.146;17.120;2023-06-14T05:49:53;15.29;70.60
66373;SHT30;53168;51.146;17.120;2023-06-14T05:52:27;15.38;70.30
66373;SHT30;53168;51.146;17.120;2023-06-14T05:55:04;15.41;70.22
66373;SHT30;53168;51.146;17.120;2023-06-14T05:57:46;15.49;70.15
66373;SHT30;53168;51.146;17.120;2023-06-14T06:00:22;15.57;69.83
66373;SHT30;53168;51.146;17.120;2023-06-14T06:02:56;15.64;69.68
66373;SHT30;53168;51.146;17.120;2023-06-14T06:05:30;15.69;69.68
66373;SHT30;53168;51.146;17.120;2023-06-14T06:08:04;15.81;69.48
66373;SHT30;53168;51.146;17.120;2023-06-14T06:10:38;16.01;69.30
66373;SHT30;53168;51.146;17.120;2023-06-14T06:13:13;16.28;68.99
66373;SHT30;53168;51.146;17.120;2023-06-14T06:15:47;16.50;69.01
66373;SHT30;53168;51.146;17.120;2023-06-14T06:18:21;16.84;68.48
66373;SHT30;53168;51.146;17.120;2023-06-14T06:20:55;16.95;67.89
66373;SHT30;53168;51.146;17.120;2023-06-14T06:23:28;17.02;67.83
66373;SHT30;53168;51.146;17.120;2023-06-14T06:26:02;17.11;67.87
66373;SHT30;53168;51.146;17.120;2023-06-14T06:28:37;17.22;67.73
66373;SHT30;53168;51.146;17.120;2023-06-14T06:31:10;17.33;67.52
66373;SHT30;53168;51.146;17.120;2023-06-14T06:33:44;17.54;67.13
66373;SHT30;53168;51.146;17.120;2023-06-14T06:36:18;17.60;66.91
66373;SHT30;53168;51.146;17.120;2023-06-14T06:38:52;17.51;66.92
66373;SHT30;53168;51.146;17.120;2023-06-14T06:41:28;17.35;67.04
66373;SHT30;53168;51.146;17.120;2023-06-14T06:44:03;17.19;67.08
66373;SHT30;53168;51.146;17.120;2023-06-14T06:46:38;17.05;67.36
66373;SHT30;53168;51.146;17.120;2023-06-14T06:49:13;17.02;67.54
66373;SHT30;53168;51.146;17.120;2023-06-14T06:52:08;16.95;67.50
66373;SHT30;53168;51.146;17.120;2023-06-14T06:54:42;16.77;67.51
66373;SHT30;53168;51.146;17.120;2023-06-14T06:57:16;16.66;67.72
66373;SHT30;53168;51.146;17.120;2023-06-14T06:59:50;16.68;67.92
66373;SHT30;53168;51.146;17.120;2023-06-14T07:02:24;16.86;67.69
66373;SHT30;53168;51.146;17.120;2023-06-14T07:04:58;16.98;67.28
66373;SHT30;53168;51.146;17.120;2023-06-14T07:07:32;17.03;67.43
66373;SHT30;53168;51.146;17.120;2023-06-14T07:10:07;17.15;67.31
66373;SHT30;53168;51.146;17.120;2023-06-14T07:12:41;17.24;67.01
66373;SHT30;53168;51.146;17.120;2023-06-14T07:15:15;17.30;66.94
66373;SHT30;53168;51.146;17.120;2023-06-14T07:17:49;17.42;66.61
66373;SHT30;53168;51.146;17.120;2023-06-14T07:20:24;17.55;66.48
66373;SHT30;53168;51.146;17.120;2023-06-14T07:22:59;17.69;66.59
66373;SHT30;53168;51.146;17.120;2023-06-14T07:25:33;17.82;66.34
66373;SHT30;53168;51.146;17.120;2023-06-14T07:28:07;18.05;65.90
66373;SHT30;53168;51.146;17.120;2023-06-14T07:30:41;18.18;65.66
66373;SHT30;53168;51.146;17.120;2023-06-14T07:33:21;18.06;65.55
66373;SHT30;53168;51.146;17.120;2023-06-14T07:35:56;17.98;65.46
66373;SHT30;53168;51.146;17.120;2023-06-14T07:38:30;18.00;65.49
66373;SHT30;53168;51.146;17.120;2023-06-14T07:41:05;18.02;65.50
66373;SHT30;53168;51.146;17.120;2023-06-14T07:43:39;18.20;65.14
66373;SHT30;53168;51.146;17.120;2023-06-14T07:46:13;18.27;64.62
66373;SHT30;53168;51.146;17.120;2023-06-14T07:48:47;18.28;64.42
66373;SHT30;53168;51.146;17.120;2023-06-14T07:51:22;18.32;64.32
66373;SHT30;53168;51.146;17.120;2023-06-14T07:53:56;18.47;64.37
66373;SHT30;53168;51.146;17.120;2023-06-14T07:56:31;18.51;64.17
66373;SHT30;53168;51.146;17.120;2023-06-14T07:59:06;18.67;64.15
66373;SHT30;53168;51.146;17.120;2023-06-14T08:01:42;18.89;63.43
66373;SHT30;53168;51.146;17.120;2023-06-14T08:04:19;19.03;62.94
66373;SHT30;53168;51.146;17.120;2023-06-14T08:06:52;19.26;62.85
66373;SHT30;53168;51.146;17.120;2023-06-14T08:09:28;19.58;61.92
66373;SHT30;53168;51.146;17.120;2023-06-14T08:12:19;19.84;61.89
66373;SHT30;53168;51.146;17.120;2023-06-14T08:14:54;20.01;61.11
66373;SHT30;53168;51.146;17.120;2023-06-14T08:17:50;19.93;60.89
66373;SHT30;53168;51.146;17.120;2023-06-14T08:20:33;19.82;61.16
66373;SHT30;53168;51.146;17.120;2023-06-14T08:23:23;19.68;61.08
66373;SHT30;53168;51.146;17.120;2023-06-14T08:26:02;19.67;61.19
66373;SHT30;53168;51.146;17.120;2023-06-14T08:28:42;19.70;60.87
66373;SHT30;53168;51.146;17.120;2023-06-14T08:31:22;19.63;60.78
66373;SHT30;53168;51.146;17.120;2023-06-14T08:34:06;19.52;60.64
66373;SHT30;53168;51.146;17.120;2023-06-14T08:36:50;19.39;60.88
66373;SHT30;53168;51.146;17.120;2023-06-14T08:39:43;19.45;60.86
66373;SHT30;53168;51.146;17.120;2023-06-14T08:42:23;19.55;60.73
66373;SHT30;53168;51.146;17.120;2023-06-14T08:45:08;19.72;60.73
66373;SHT30;53168;51.146;17.120;2023-06-14T08:47:56;19.82;60.34
66373;SHT30;53168;51.146;17.120;2023-06-14T08:50:37;19.94;60.02
66373;SHT30;53168;51.146;17.120;2023-06-14T08:53:15;19.98;59.31
66373;SHT30;53168;51.146;17.120;2023-06-14T08:56:11;20.06;59.25
66373;SHT30;53168;51.146;17.120;2023-06-14T08:58:58;20.19;59.41
66373;SHT30;53168;51.146;17.120;2023-06-14T09:01:36;20.37;59.29
66373;SHT30;53168;51.146;17.120;2023-06-14T09:04:48;20.55;58.69
66373;SHT30;53168;51.146;17.120;2023-06-14T09:07:32;20.66;58.09
66373;SHT30;53168;51.146;17.120;2023-06-14T09:10:47;21.03;57.60
66373;SHT30;53168;51.146;17.120;2023-06-14T09:13:23;21.15;57.01
66373;SHT30;53168;51.146;17.120;2023-06-14T09:16:07;21.11;56.82
66373;SHT30;53168;51.146;17.120;2023-06-14T09:18:45;20.86;56.60
66373;SHT30;53168;51.146;17.120;2023-06-14T09:21:36;20.50;57.21
66373;SHT30;53168;51.146;17.120;2023-06-14T09:24:33;20.12;57.42
66373;SHT30;53168;51.146;17.120;2023-06-14T09:27:19;19.72;57.42
66373;SHT30;53168;51.146;17.120;2023-06-14T09:29:57;19.47;57.86
66373;SHT30;53168;51.146;17.120;2023-06-14T09:32:33;19.26;58.20
66373;SHT30;53168;51.146;17.120;2023-06-14T09:39:18;18.88;59.68
66373;SHT30;53168;51.146;17.120;2023-06-14T09:41:53;18.80;59.92
66373;SHT30;53168;51.146;17.120;2023-06-14T09:44:31;18.73;59.61
66373;SHT30;53168;51.146;17.120;2023-06-14T09:47:06;18.76;59.64
66373;SHT30;53168;51.146;17.120;2023-06-14T09:49:41;18.83;59.41
66373;SHT30;53168;51.146;17.120;2023-06-14T09:52:21;18.99;59.40
66373;SHT30;53168;51.146;17.120;2023-06-14T09:55:00;19.19;59.30
66373;SHT30;53168;51.146;17.120;2023-06-14T09:57:56;19.51;58.85
66373;SHT30;53168;51.146;17.120;2023-06-14T10:01:11;19.87;58.19
66373;SHT30;53168;51.146;17.120;2023-06-14T10:04:04;20.12;57.80
66373;SHT30;53168;51.146;17.120;2023-06-14T10:06:45;20.34;57.07
66373;SHT30;53168;51.146;17.120;2023-06-14T10:13:28;20.88;56.21
66373;SHT30;53168;51.146;17.120;2023-06-14T10:20:32;21.13;54.82
66373;SHT30;53168;51.146;17.120;2023-06-14T10:23:51;21.32;55.24
66373;SHT30;53168;51.146;17.120;2023-06-14T10:26:25;21.54;55.04
66373;SHT30;53168;51.146;17.120;2023-06-14T10:29:06;21.85;54.78
66373;SHT30;53168;51.146;17.120;2023-06-14T10:31:48;22.15;53.85
66373;SHT30;53168;51.146;17.120;2023-06-14T10:34:27;22.43;53.54
66373;SHT30;53168;51.146;17.120;2023-06-14T10:37:05;22.93;52.90
66373;SHT30;53168;51.146;17.120;2023-06-14T10:39:47;23.22;52.52
66373;SHT30;53168;51.146;17.120;2023-06-14T10:42:21;23.26;52.27
66373;SHT30;53168;51.146;17.120;2023-06-14T10:45:00;23.08;51.37
66373;SHT30;53168;51.146;17.120;2023-06-14T10:47:35;22.88;51.54
66373;SHT30;53168;51.146;17.120;2023-06-14T10:50:11;22.63;51.49
66373;SHT30;53168;51.146;17.120;2023-06-14T10:52:47;22.53;51.71
66373;SHT30;53168;51.146;17.120;2023-06-14T10:55:23;22.60;51.50
66373;SHT30;53168;51.146;17.120;2023-06-14T10:57:58;22.80;51.27
66373;SHT30;53168;51.146;17.120;2023-06-14T11:00:47;22.97;50.98
66373;SHT30;53168;51.146;17.120;2023-06-14T11:03:52;23.02;51.00
66373;SHT30;53168;51.146;17.120;2023-06-14T11:06:36;22.99;51.13
66373;SHT30;53168;51.146;17.120;2023-06-14T11:09:45;22.76;50.67
66373;SHT30;53168;51.146;17.120;2023-06-14T11:12:34;22.34;50.83
66373;SHT30;53168;51.146;17.120;2023-06-14T11:15:09;22.17;50.86
66373;SHT30;53168;51.146;17.120;2023-06-14T11:17:53;22.04;50.71
66373;SHT30;53168;51.146;17.120;2023-06-14T11:20:32;22.01;51.20
66373;SHT30;53168;51.146;17.120;2023-06-14T11:23:07;22.08;51.07
66373;SHT30;53168;51.146;17.120;2023-06-14T11:25:41;22.10;50.95
66373;SHT30;53168;51.146;17.120;2023-06-14T11:28:16;22.16;50.65
66373;SHT30;53168;51.146;17.120;2023-06-14T11:31:09;22.16;50.35
66373;SHT30;53168;51.146;17.120;2023-06-14T11:34:13;22.18;50.69
66373;SHT30;53168;51.146;17.120;2023-06-14T11:36:53;22.32;50.28
66373;SHT30;53168;51.146;17.120;2023-06-14T11:39:48;22.34;50.32
66373;SHT30;53168;51.146;17.120;2023-06-14T11:42:28;22.33;50.47
66373;SHT30;53168;51.146;17.120;2023-06-14T11:45:07;22.32;50.02
66373;SHT30;53168;51.146;17.120;2023-06-14T11:47:42;22.27;50.54
66373;SHT30;53168;51.146;17.120;2023-06-14T11:50:16;22.25;50.32
66373;SHT30;53168;51.146;17.120;2023-06-14T11:53:01;22.14;50.24
66373;SHT30;53168;51.146;17.120;2023-06-14T11:55:39;21.99;50.29
66373;SHT30;53168;51.146;17.120;2023-06-14T11:58:19;21.76;50.42
66373;SHT30;53168;51.146;17.120;2023-06-14T12:00:54;21.54;50.66
66373;SHT30;53168;51.146;17.120;2023-06-14T12:03:28;21.28;50.96
66373;SHT30;53168;51.146;17.120;2023-06-14T12:06:08;20.89;51.77
66373;SHT30;53168;51.146;17.120;2023-06-14T12:08:44;20.42;52.74
66373;SHT30;53168;51.146;17.120;2023-06-14T12:11:20;20.00;53.53
66373;SHT30;53168;51.146;17.120;2023-06-14T12:13:56;19.72;54.60
66373;SHT30;53168;51.146;17.120;2023-06-14T12:16:43;19.38;55.88
66373;SHT30;53168;51.146;17.120;2023-06-14T12:19:18;19.11;56.57
66373;SHT30;53168;51.146;17.120;2023-06-14T12:22:00;18.90;57.34
66373;SHT30;53168;51.146;17.120;2023-06-14T12:24:36;18.72;57.95
66373;SHT30;53168;51.146;17.120;2023-06-14T12:27:12;18.60;58.32
66373;SHT30;53168;51.146;17.120;2023-06-14T12:30:02;18.57;58.54
66373;SHT30;53168;51.146;17.120;2023-06-14T12:32:39;18.62;58.90
66373;SHT30;53168;51.146;17.120;2023-06-14T12:35:16;18.69;58.97
66373;SHT30;53168;51.146;17.120;2023-06-14T12:37:50;18.81;58.93
66373;SHT30;53168;51.146;17.120;2023-06-14T12:40:25;18.97;58.96
66373;SHT30;53168;51.146;17.120;2023-06-14T12:43:00;19.12;59.31
66373;SHT30;53168;51.146;17.120;2023-06-14T12:45:42;19.21;59.25
66373;SHT30;53168;51.146;17.120;2023-06-14T12:48:16;19.36;58.85
66373;SHT30;53168;51.146;17.120;2023-06-14T12:50:50;19.52;58.73
66373;SHT30;53168;51.146;17.120;2023-06-14T12:53:24;19.65;58.62
66373;SHT30;53168;51.146;17.120;2023-06-14T12:55:59;19.72;58.88
66373;SHT30;53168;51.146;17.120;2023-06-14T12:58:39;19.89;59.08
66373;SHT30;53168;51.146;17.120;2023-06-14T13:01:17;20.05;59.50
66373;SHT30;53168;51.146;17.120;2023-06-14T13:03:52;20.19;58.81
66373;SHT30;53168;51.146;17.120;2023-06-14T13:06:32;20.30;58.52
66373;SHT30;53168;51.146;17.120;2023-06-14T13:09:06;20.39;57.67
66373;SHT30;53168;51.146;17.120;2023-06-14T13:11:41;20.48;58.12
66373;SHT30;53168;51.146;17.120;2023-06-14T13:14:18;20.69;57.63
66373;SHT30;53168;51.146;17.120;2023-06-14T13:16:56;21.29;57.12
66373;SHT30;53168;51.146;17.120;2023-06-14T13:19:32;22.17;56.07
66373;SHT30;53168;51.146;17.120;2023-06-14T13:22:07;22.73;54.78
66373;SHT30;53168;51.146;17.120;2023-06-14T13:24:42;22.67;54.68
66373;SHT30;53168;51.146;17.120;2023-06-14T13:27:17;22.50;54.73
66373;SHT30;53168;51.146;17.120;2023-06-14T13:29:51;22.26;54.02
66373;SHT30;53168;51.146;17.120;2023-06-14T13:32:26;22.00;54.47
66373;SHT30;53168;51.146;17.120;2023-06-14T13:35:03;21.92;54.27
66373;SHT30;53168;51.146;17.120;2023-06-14T13:37:38;21.82;54.41
66373;SHT30;53168;51.146;17.120;2023-06-14T13:40:13;21.76;54.17
66373;SHT30;53168;51.146;17.120;2023-06-14T13:42:48;21.68;54.26
66373;SHT30;53168;51.146;17.120;2023-06-14T13:45:25;22.08;54.21
66373;SHT30;53168;51.146;17.120;2023-06-14T13:47:59;23.23;53.61
66373;SHT30;53168;51.146;17.120;2023-06-14T13:50:34;24.38;52.04
66373;SHT30;53168;51.146;17.120;2023-06-14T13:53:10;24.99;50.18
66373;SHT30;53168;51.146;17.120;2023-06-14T13:55:47;24.91;49.54
66373;SHT30;53168;51.146;17.120;2023-06-14T13:58:21;24.45;49.21
66373;SHT30;53168;51.146;17.120;2023-06-14T14:00:56;23.83;49.63
66373;SHT30;53168;51.146;17.120;2023-06-14T14:03:32;23.21;49.56
66373;SHT30;53168;51.146;17.120;2023-06-14T14:06:06;22.56;50.49
66373;SHT30;53168;51.146;17.120;2023-06-14T14:08:43;22.03;51.21
66373;SHT30;53168;51.146;17.120;2023-06-14T14:11:35;21.56;51.79
66373;SHT30;53168;51.146;17.120;2023-06-14T14:14:35;21.14;52.29
66373;SHT30;53168;51.146;17.120;2023-06-14T14:17:10;20.84;52.79
66373;SHT30;53168;51.146;17.120;2023-06-14T14:19:59;20.52;52.97
66373;SHT30;53168;51.146;17.120;2023-06-14T14:22:33;20.21;53.40
66373;SHT30;53168;51.146;17.120;2023-06-14T14:25:10;19.99;53.78
66373;SHT30;53168;51.146;17.120;2023-06-14T14:28:11;19.77;54.45
66373;SHT30;53168;51.146;17.120;2023-06-14T14:30:55;19.51;55.14
66373;SHT30;53168;51.146;17.120;2023-06-14T14:33:35;19.32;55.86
66373;SHT30;53168;51.146;17.120;2023-06-14T14:36:14;19.17;56.11
66373;SHT30;53168;51.146;17.120;2023-06-14T14:38:51;19.05;56.57
66373;SHT30;53168;51.146;17.120;2023-06-14T14:41:34;18.99;56.89
66373;SHT30;53168;51.146;17.120;2023-06-14T14:44:16;18.94;57.07
66373;SHT30;53168;51.146;17.120;2023-06-14T14:46:52;18.96;57.36
66373;SHT30;53168;51.146;17.120;2023-06-14T14:49:29;18.98;57.49
66373;SHT30;53168;51.146;17.120;2023-06-14T14:52:19;19.05;57.51
66373;SHT30;53168;51.146;17.120;2023-06-14T14:55:01;19.15;57.68
66373;SHT30;53168;51.146;17.120;2023-06-14T14:57:36;19.30;57.52
66373;SHT30;53168;51.146;17.120;2023-06-14T15:00:16;19.47;57.41
66373;SHT30;53168;51.146;17.120;2023-06-14T15:02:54;19.57;57.37
66373;SHT30;53168;51.146;17.120;2023-06-14T15:05:29;19.74;57.59
66373;SHT30;53168;51.146;17.120;2023-06-14T15:08:04;19.92;57.77
66373;SHT30;53168;51.146;17.120;2023-06-14T15:10:53;20.13;57.66
66373;SHT30;53168;51.146;17.120;2023-06-14T15:13:38;20.36;57.37
66373;SHT30;53168;51.146;17.120;2023-06-14T15:16:15;20.53;57.24
66373;SHT30;53168;51.146;17.120;2023-06-14T15:19:05;20.71;57.07
66373;SHT30;53168;51.146;17.120;2023-06-14T15:21:57;20.85;56.75
66373;SHT30;53168;51.146;17.120;2023-06-14T15:24:50;20.93;56.75
66373;SHT30;53168;51.146;17.120;2023-06-14T15:27:25;20.94;56.80
66373;SHT30;53168;51.146;17.120;2023-06-14T15:30:44;20.86;56.71
66373;SHT30;53168;51.146;17.120;2023-06-14T15:47:54;20.29;57.40
66373;SHT30;53168;51.146;17.120;2023-06-14T16:00:23;20.74;57.02
66373;SHT30;53168;51.146;17.120;2023-06-14T16:03:15;20.82;56.60
66373;SHT30;53168;51.146;17.120;2023-06-14T16:05:51;20.92;56.50
66373;SHT30;53168;51.146;17.120;2023-06-14T16:08:48;20.97;56.54
66373;SHT30;53168;51.146;17.120;2023-06-14T16:11:39;20.91;56.88
66373;SHT30;53168;51.146;17.120;2023-06-14T16:14:22;20.83;56.84
66373;SHT30;53168;51.146;17.120;2023-06-14T16:17:03;20.71;56.90
66373;SHT30;53168;51.146;17.120;2023-06-14T16:20:08;20.57;56.85
66373;SHT30;53168;51.146;17.120;2023-06-14T16:23:04;20.33;57.19
66373;SHT30;53168;51.146;17.120;2023-06-14T16:25:39;20.15;57.54
66373;SHT30;53168;51.146;17.120;2023-06-14T16:28:14;20.00;57.51
66373;SHT30;53168;51.146;17.120;2023-06-14T16:31:03;19.86;57.33
66373;SHT30;53168;51.146;17.120;2023-06-14T16:33:44;19.74;57.74
66373;SHT30;53168;51.146;17.120;2023-06-14T16:36:33;19.63;57.93
66373;SHT30;53168;51.146;17.120;2023-06-14T16:39:36;19.52;57.86
66373;SHT30;53168;51.146;17.120;2023-06-14T16:42:18;19.43;58.06
66373;SHT30;53168;51.146;17.120;2023-06-14T16:44:56;19.29;58.46
66373;SHT30;53168;51.146;17.120;2023-06-14T16:47:45;19.11;59.11
66373;SHT30;53168;51.146;17.120;2023-06-14T16:50:35;18.93;59.45
66373;SHT30;53168;51.146;17.120;2023-06-14T16:53:36;18.76;59.79
66373;SHT30;53168;51.146;17.120;2023-06-14T16:56:31;18.70;59.99
66373;SHT30;53168;51.146;17.120;2023-06-14T16:59:26;18.66;60.35
66373;SHT30;53168;51.146;17.120;2023-06-14T17:02:56;18.65;60.86
66373;SHT30;53168;51.146;17.120;2023-06-14T17:05:38;18.61;61.08
66373;SHT30;53168;51.146;17.120;2023-06-14T17:08:47;18.60;61.52
66373;SHT30;53168;51.146;17.120;2023-06-14T17:11:24;18.61;61.94
66373;SHT30;53168;51.146;17.120;2023-06-14T17:13:58;18.57;61.98
66373;SHT30;53168;51.146;17.120;2023-06-14T17:16:33;18.53;61.93
66373;SHT30;53168;51.146;17.120;2023-06-14T17:19:07;18.48;61.91
66373;SHT30;53168;51.146;17.120;2023-06-14T17:21:41;18.48;61.98
66373;SHT30;53168;51.146;17.120;2023-06-14T17:24:20;18.44;61.90
66373;SHT30;53168;51.146;17.120;2023-06-14T17:27:12;18.41;61.98
66373;SHT30;53168;51.146;17.120;2023-06-14T17:30:05;18.38;61.87
66373;SHT30;53168;51.146;17.120;2023-06-14T17:32:42;18.37;61.83
66373;SHT30;53168;51.146;17.120;2023-06-14T17:35:17;18.35;61.85
66373;SHT30;53168;51.146;17.120;2023-06-14T17:37:51;18.30;62.08
66373;SHT30;53168;51.146;17.120;2023-06-14T17:40:26;18.21;62.23
66373;SHT30;53168;51.146;17.120;2023-06-14T17:43:22;18.14;62.37
66373;SHT30;53168;51.146;17.120;2023-06-14T17:45:58;18.10;62.45
66373;SHT30;53168;51.146;17.120;2023-06-14T17:48:49;18.04;62.51
66373;SHT30;53168;51.146;17.120;2023-06-14T17:51:31;18.00;62.54